sensor_id;sensor_type;location;lat;lon;timestamp;temperature;humidity
42833;DHT22;64089;51.478;5.692;2023-04-24T00:00:57;10.20;99.90
42833;DHT22;64089;51.478;5.692;2023-04-24T00:03:24;10.10;99.90
42833;DHT22;64089;51.478;5.692;2023-04-24T00:05:50;10.20;99.90
42833;DHT22;64089;51.478;5.692;2023-04-24T00:08:17;10.20;99.90
42833;DHT22;64089;51.478;5.692;2023-04-24T00:10:42;10.20;99.90
42833;DHT22;64089;51.478;5.692;2023-04-24T00:13:08;10.20;99.90
42833;DHT22;64089;51.478;5.692;2023-04-24T00:15:34;10.20;99.90
42833;DHT22;64089;51.478;5.692;2023-04-24T00:17:59;10.20;99.90
42833;DHT22;64089;51.478;5.692;2023-04-24T00:20:27;10.20;99.90
42833;DHT22;64089;51.478;5.692;2023-04-24T00:22:54;10.10;99.90
42833;DHT22;64089;51.478;5.692;2023-04-24T00:25:20;10.10;99.90
42833;DHT22;64089;51.478;5.692;2023-04-24T00:27:46;10.10;99.90
42833;DHT22;64089;51.478;5.692;2023-04-24T00:30:11;10.10;99.90
42833;DHT22;64089;51.478;5.692;2023-04-24T00:32:37;10.10;99.90
42833;DHT22;64089;51.478;5.692;2023-04-24T00:35:03;10.10;99.90
42833;DHT22;64089;51.478;5.692;2023-04-24T00:37:28;10.10;99.90
42833;DHT22;64089;51.478;5.692;2023-04-24T00:39:54;10.10;99.90
42833;DHT22;64089;51.478;5.692;2023-04-24T00:42:20;10.10;99.90
42833;DHT22;64089;51.478;5.692;2023-04-24T00:44:46;10.10;99.90
42833;DHT22;64089;51.478;5.692;2023-04-24T00:47:12;10.00;99.90
42833;DHT22;64089;51.478;5.692;2023-04-24T00:49:38;10.00;99.90
42833;DHT22;64089;51.478;5.692;2023-04-24T00:52:04;10.00;99.90
42833;DHT22;64089;51.478;5.692;2023-04-24T00:54:33;10.00;99.90
42833;DHT22;64089;51.478;5.692;2023-04-24T00:56:58;10.00;99.90
42833;DHT22;64089;51.478;5.692;2023-04-24T00:59:24;10.00;99.90
42833;DHT22;64089;51.478;5.692;2023-04-24T01:01:50;10.00;99.90
42833;DHT22;64089;51.478;5.692;2023-04-24T01:04:17;9.90;99.90
42833;DHT22;64089;51.478;5.692;2023-04-24T01:06:44;9.90;99.90
42833;DHT22;64089;51.478;5.692;2023-04-24T01:09:12;9.90;99.90
42833;DHT22;64089;51.478;5.692;2023-04-24T01:11:38;9.90;99.90
42833;DHT22;64089;51.478;5.692;2023-04-24T01:14:03;9.90;99.90
42833;DHT22;64089;51.478;5.692;2023-04-24T01:16:29;9.90;99.90
42833;DHT22;64089;51.478;5.692;2023-04-24T01:18:55;9.90;99.90
42833;DHT22;64089;51.478;5.692;2023-04-24T01:21:21;9.90;99.90
42833;DHT22;64089;51.478;5.692;2023-04-24T01:23:47;9.80;99.90
42833;DHT22;64089;51.478;5.692;2023-04-24T01:26:16;9.80;99.90
42833;DHT22;64089;51.478;5.692;2023-04-24T01:28:42;9.80;99.90
42833;DHT22;64089;51.478;5.692;2023-04-24T01:31:07;9.80;99.90
42833;DHT22;64089;51.478;5.692;2023-04-24T01:33:33;9.80;99.90
42833;DHT22;64089;51.478;5.692;2023-04-24T01:35:59;9.70;99.90
42833;DHT22;64089;51.478;5.692;2023-04-24T01:38:25;9.70;99.90
42833;DHT22;64089;51.478;5.692;2023-04-24T01:40:51;9.70;99.90
42833;DHT22;64089;51.478;5.692;2023-04-24T01:43:17;9.70;99.90
42833;DHT22;64089;51.478;5.692;2023-04-24T01:45:43;9.80;99.90
42833;DHT22;64089;51.478;5.692;2023-04-24T01:48:08;9.70;99.90
42833;DHT22;64089;51.478;5.692;2023-04-24T01:50:34;9.70;99.90
42833;DHT22;64089;51.478;5.692;2023-04-24T01:53:00;9.70;99.90
42833;DHT22;64089;51.478;5.692;2023-04-24T01:55:25;9.70;99.90
42833;DHT22;64089;51.478;5.692;2023-04-24T01:57:52;9.80;99.90
42833;DHT22;64089;51.478;5.692;2023-04-24T02:00:20;9.80;99.90
42833;DHT22;64089;51.478;5.692;2023-04-24T02:02:46;9.80;99.90
42833;DHT22;64089;51.478;5.692;2023-04-24T02:05:12;9.70;99.90
42833;DHT22;64089;51.478;5.692;2023-04-24T02:07:37;9.70;99.90
42833;DHT22;64089;51.478;5.692;2023-04-24T02:10:04;9.70;99.90
42833;DHT22;64089;51.478;5.692;2023-04-24T02:12:30;9.80;99.90
42833;DHT22;64089;51.478;5.692;2023-04-24T02:14:55;9.80;99.90
42833;DHT22;64089;51.478;5.692;2023-04-24T02:17:21;9.80;99.90
42833;DHT22;64089;51.478;5.692;2023-04-24T02:19:48;9.80;99.90
42833;DHT22;64089;51.478;5.692;2023-04-24T02:22:13;9.70;99.90
42833;DHT22;64089;51.478;5.692;2023-04-24T02:24:39;9.70;99.90
42833;DHT22;64089;51.478;5.692;2023-04-24T02:27:05;9.70;99.90
42833;DHT22;64089;51.478;5.692;2023-04-24T02:29:31;9.70;99.90
42833;DHT22;64089;51.478;5.692;2023-04-24T02:31:56;9.70;99.90
42833;DHT22;64089;51.478;5.692;2023-04-24T02:34:22;9.70;99.90
42833;DHT22;64089;51.478;5.692;2023-04-24T02:36:48;9.70;99.90
42833;DHT22;64089;51.478;5.692;2023-04-24T02:39:14;9.70;99.90
42833;DHT22;64089;51.478;5.692;2023-04-24T02:41:42;9.80;99.90
42833;DHT22;64089;51.478;5.692;2023-04-24T02:44:08;9.80;99.90
42833;DHT22;64089;51.478;5.692;2023-04-24T02:46:33;9.80;99.90
42833;DHT22;64089;51.478;5.692;2023-04-24T02:48:59;9.80;99.90
42833;DHT22;64089;51.478;5.692;2023-04-24T02:51:25;9.80;99.90
42833;DHT22;64089;51.478;5.692;2023-04-24T02:53:50;9.80;99.90
42833;DHT22;64089;51.478;5.692;2023-04-24T02:56:16;9.80;99.90
42833;DHT22;64089;51.478;5.692;2023-04-24T02:58:42;9.70;99.90
42833;DHT22;64089;51.478;5.692;2023-04-24T03:01:08;9.70;99.90
42833;DHT22;64089;51.478;5.692;2023-04-24T03:03:35;9.70;99.90
42833;DHT22;64089;51.478;5.692;2023-04-24T03:06:01;9.70;99.90
42833;DHT22;64089;51.478;5.692;2023-04-24T03:08:27;9.70;99.90
42833;DHT22;64089;51.478;5.692;2023-04-24T03:10:52;9.70;99.90
42833;DHT22;64089;51.478;5.692;2023-04-24T03:13:18;9.70;99.90
42833;DHT22;64089;51.478;5.692;2023-04-24T03:15:44;9.70;99.90
42833;DHT22;64089;51.478;5.692;2023-04-24T03:18:11;9.70;99.90
42833;DHT22;64089;51.478;5.692;2023-04-24T03:20:37;9.80;99.90
42833;DHT22;64089;51.478;5.692;2023-04-24T03:23:03;9.80;99.90
42833;DHT22;64089;51.478;5.692;2023-04-24T03:25:29;9.80;99.90
42833;DHT22;64089;51.478;5.692;2023-04-24T03:27:54;9.80;99.90
42833;DHT22;64089;51.478;5.692;2023-04-24T03:30:23;9.70;99.90
42833;DHT22;64089;51.478;5.692;2023-04-24T03:32:48;9.70;99.90
42833;DHT22;64089;51.478;5.692;2023-04-24T03:35:14;9.70;99.90
42833;DHT22;64089;51.478;5.692;2023-04-24T03:37:39;9.80;99.90
42833;DHT22;64089;51.478;5.692;2023-04-24T03:40:08;9.70;99.90
42833;DHT22;64089;51.478;5.692;2023-04-24T03:42:34;9.70;99.90
42833;DHT22;64089;51.478;5.692;2023-04-24T03:45:00;9.60;99.90
42833;DHT22;64089;51.478;5.692;2023-04-24T03:47:25;9.60;99.90
42833;DHT22;64089;51.478;5.692;2023-04-24T03:49:51;9.60;99.90
42833;DHT22;64089;51.478;5.692;2023-04-24T03:52:17;9.60;99.90
42833;DHT22;64089;51.478;5.692;2023-04-24T03:54:42;9.60;99.90
42833;DHT22;64089;51.478;5.692;2023-04-24T03:57:08;9.60;99.90
42833;DHT22;64089;51.478;5.692;2023-04-24T03:59:33;9.60;99.90
42833;DHT22;64089;51.478;5.692;2023-04-24T04:01:59;9.60;99.90
42833;DHT22;64089;51.478;5.692;2023-04-24T04:04:24;9.60;99.90
42833;DHT22;64089;51.478;5.692;2023-04-24T04:06:50;9.60;99.90
42833;DHT22;64089;51.478;5.692;2023-04-24T04:09:16;9.60;99.90
42833;DHT22;64089;51.478;5.692;2023-04-24T04:11:42;9.60;99.90
42833;DHT22;64089;51.478;5.692;2023-04-24T04:14:07;9.60;99.90
42833;DHT22;64089;51.478;5.692;2023-04-24T04:16:33;9.60;99.90
42833;DHT22;64089;51.478;5.692;2023-04-24T04:18:58;9.60;99.90
42833;DHT22;64089;51.478;5.692;2023-04-24T04:21:24;9.60;99.90
42833;DHT22;64089;51.478;5.692;2023-04-24T04:23:50;9.60;99.90
42833;DHT22;64089;51.478;5.692;2023-04-24T04:26:19;9.50;99.90
42833;DHT22;64089;51.478;5.692;2023-04-24T04:28:46;9.50;99.90
42833;DHT22;64089;51.478;5.692;2023-04-24T04:31:13;9.50;99.90
42833;DHT22;64089;51.478;5.692;2023-04-24T04:33:38;9.40;99.90
42833;DHT22;64089;51.478;5.692;2023-04-24T04:36:05;9.40;99.90
42833;DHT22;64089;51.478;5.692;2023-04-24T04:38:30;9.40;99.90
42833;DHT22;64089;51.478;5.692;2023-04-24T04:40:56;9.30;99.90
42833;DHT22;64089;51.478;5.692;2023-04-24T04:43:23;9.30;99.90
42833;DHT22;64089;51.478;5.692;2023-04-24T04:45:49;9.30;99.90
42833;DHT22;64089;51.478;5.692;2023-04-24T04:48:17;9.30;99.90
42833;DHT22;64089;51.478;5.692;2023-04-24T04:50:44;9.30;99.90
42833;DHT22;64089;51.478;5.692;2023-04-24T04:53:09;9.30;99.90
42833;DHT22;64089;51.478;5.692;2023-04-24T04:55:36;9.30;99.90
42833;DHT22;64089;51.478;5.692;2023-04-24T04:58:01;9.20;99.90
42833;DHT22;64089;51.478;5.692;2023-04-24T05:00:27;9.20;99.90
42833;DHT22;64089;51.478;5.692;2023-04-24T05:02:54;9.20;99.90
42833;DHT22;64089;51.478;5.692;2023-04-24T05:05:20;9.20;99.90
42833;DHT22;64089;51.478;5.692;2023-04-24T05:07:45;9.10;99.90
42833;DHT22;64089;51.478;5.692;2023-04-24T05:10:11;9.20;99.90
42833;DHT22;64089;51.478;5.692;2023-04-24T05:12:36;9.20;99.90
42833;DHT22;64089;51.478;5.692;2023-04-24T05:15:03;9.20;99.90
42833;DHT22;64089;51.478;5.692;2023-04-24T05:17:28;9.20;99.90
42833;DHT22;64089;51.478;5.692;2023-04-24T05:19:54;9.10;99.90
42833;DHT22;64089;51.478;5.692;2023-04-24T05:22:20;9.10;99.90
42833;DHT22;64089;51.478;5.692;2023-04-24T05:24:47;9.10;99.90
42833;DHT22;64089;51.478;5.692;2023-04-24T05:27:13;9.10;99.90
42833;DHT22;64089;51.478;5.692;2023-04-24T05:29:38;9.20;99.90
42833;DHT22;64089;51.478;5.692;2023-04-24T05:32:04;9.30;99.90
42833;DHT22;64089;51.478;5.692;2023-04-24T05:34:30;9.30;99.90
42833;DHT22;64089;51.478;5.692;2023-04-24T05:36:55;9.30;99.90
42833;DHT22;64089;51.478;5.692;2023-04-24T05:39:21;9.30;99.90
42833;DHT22;64089;51.478;5.692;2023-04-24T05:41:46;9.30;99.90
42833;DHT22;64089;51.478;5.692;2023-04-24T05:44:12;9.60;99.90
42833;DHT22;64089;51.478;5.692;2023-04-24T05:46:38;9.60;99.90
42833;DHT22;64089;51.478;5.692;2023-04-24T05:49:03;9.60;99.90
42833;DHT22;64089;51.478;5.692;2023-04-24T05:51:29;9.50;99.90
42833;DHT22;64089;51.478;5.692;2023-04-24T05:53:54;9.30;99.90
42833;DHT22;64089;51.478;5.692;2023-04-24T05:56:20;9.10;99.90
42833;DHT22;64089;51.478;5.692;2023-04-24T05:58:46;9.00;99.90
42833;DHT22;64089;51.478;5.692;2023-04-24T06:01:12;9.00;99.90
42833;DHT22;64089;51.478;5.692;2023-04-24T06:03:38;8.90;99.90
42833;DHT22;64089;51.478;5.692;2023-04-24T06:06:05;8.90;99.90
42833;DHT22;64089;51.478;5.692;2023-04-24T06:08:31;8.80;99.90
42833;DHT22;64089;51.478;5.692;2023-04-24T06:10:57;8.80;99.90
42833;DHT22;64089;51.478;5.692;2023-04-24T06:13:22;8.90;99.90
42833;DHT22;64089;51.478;5.692;2023-04-24T06:15:48;8.70;99.90
42833;DHT22;64089;51.478;5.692;2023-04-24T06:18:13;8.70;99.90
42833;DHT22;64089;51.478;5.692;2023-04-24T06:20:39;8.60;99.90
42833;DHT22;64089;51.478;5.692;2023-04-24T06:23:05;8.60;99.90
42833;DHT22;64089;51.478;5.692;2023-04-24T06:25:31;8.60;99.90
42833;DHT22;64089;51.478;5.692;2023-04-24T06:27:57;8.70;99.90
42833;DHT22;64089;51.478;5.692;2023-04-24T06:30:23;8.60;99.90
42833;DHT22;64089;51.478;5.692;2023-04-24T06:32:48;8.70;99.90
42833;DHT22;64089;51.478;5.692;2023-04-24T06:35:14;8.60;99.90
42833;DHT22;64089;51.478;5.692;2023-04-24T06:37:42;8.60;99.90
42833;DHT22;64089;51.478;5.692;2023-04-24T06:40:08;8.70;99.90
42833;DHT22;64089;51.478;5.692;2023-04-24T06:42:35;8.70;99.90
42833;DHT22;64089;51.478;5.692;2023-04-24T06:45:01;8.70;99.90
42833;DHT22;64089;51.478;5.692;2023-04-24T06:47:26;8.70;99.90
42833;DHT22;64089;51.478;5.692;2023-04-24T06:49:52;8.70;99.90
42833;DHT22;64089;51.478;5.692;2023-04-24T06:52:18;8.70;99.90
42833;DHT22;64089;51.478;5.692;2023-04-24T06:54:44;8.80;99.90
42833;DHT22;64089;51.478;5.692;2023-04-24T06:57:10;8.80;99.90
42833;DHT22;64089;51.478;5.692;2023-04-24T06:59:36;8.70;99.90
42833;DHT22;64089;51.478;5.692;2023-04-24T07:02:02;8.70;99.90
42833;DHT22;64089;51.478;5.692;2023-04-24T07:04:28;8.70;99.90
42833;DHT22;64089;51.478;5.692;2023-04-24T07:06:54;8.80;99.90
42833;DHT22;64089;51.478;5.692;2023-04-24T07:09:21;8.80;99.90
42833;DHT22;64089;51.478;5.692;2023-04-24T07:11:47;8.80;99.90
42833;DHT22;64089;51.478;5.692;2023-04-24T07:14:13;8.80;99.90
42833;DHT22;64089;51.478;5.692;2023-04-24T07:16:39;8.70;99.90
42833;DHT22;64089;51.478;5.692;2023-04-24T07:19:05;8.80;99.90
42833;DHT22;64089;51.478;5.692;2023-04-24T07:21:30;8.70;99.90
42833;DHT22;64089;51.478;5.692;2023-04-24T07:23:58;8.70;99.90
42833;DHT22;64089;51.478;5.692;2023-04-24T07:26:23;8.70;99.90
42833;DHT22;64089;51.478;5.692;2023-04-24T07:28:49;8.70;99.90
42833;DHT22;64089;51.478;5.692;2023-04-24T07:31:15;8.80;99.90
42833;DHT22;64089;51.478;5.692;2023-04-24T07:33:41;8.70;99.90
42833;DHT22;64089;51.478;5.692;2023-04-24T07:36:07;8.60;99.90
42833;DHT22;64089;51.478;5.692;2023-04-24T07:38:32;8.50;99.90
42833;DHT22;64089;51.478;5.692;2023-04-24T07:40:58;8.50;99.90
42833;DHT22;64089;51.478;5.692;2023-04-24T07:43:23;8.50;99.90
42833;DHT22;64089;51.478;5.692;2023-04-24T07:45:52;8.50;99.90
42833;DHT22;64089;51.478;5.692;2023-04-24T07:48:18;8.50;99.90
42833;DHT22;64089;51.478;5.692;2023-04-24T07:50:44;8.40;99.90
42833;DHT22;64089;51.478;5.692;2023-04-24T07:53:10;8.40;99.90
42833;DHT22;64089;51.478;5.692;2023-04-24T07:55:36;8.40;99.90
42833;DHT22;64089;51.478;5.692;2023-04-24T07:58:02;8.40;99.90
42833;DHT22;64089;51.478;5.692;2023-04-24T08:00:27;8.50;99.90
42833;DHT22;64089;51.478;5.692;2023-04-24T08:02:53;8.50;99.90
42833;DHT22;64089;51.478;5.692;2023-04-24T08:05:19;8.50;99.90
42833;DHT22;64089;51.478;5.692;2023-04-24T08:07:46;8.50;99.90
42833;DHT22;64089;51.478;5.692;2023-04-24T08:10:14;8.50;99.90
42833;DHT22;64089;51.478;5.692;2023-04-24T08:12:43;8.40;99.90
42833;DHT22;64089;51.478;5.692;2023-04-24T08:15:08;8.60;99.90
42833;DHT22;64089;51.478;5.692;2023-04-24T08:17:35;8.70;99.90
42833;DHT22;64089;51.478;5.692;2023-04-24T08:20:04;8.80;99.90
42833;DHT22;64089;51.478;5.692;2023-04-24T08:22:31;8.80;99.90
42833;DHT22;64089;51.478;5.692;2023-04-24T08:24:59;8.70;99.90
42833;DHT22;64089;51.478;5.692;2023-04-24T08:27:26;8.60;99.90
42833;DHT22;64089;51.478;5.692;2023-04-24T08:29:53;8.50;99.90
42833;DHT22;64089;51.478;5.692;2023-04-24T08:32:19;8.50;99.90
42833;DHT22;64089;51.478;5.692;2023-04-24T08:34:45;8.60;99.90
42833;DHT22;64089;51.478;5.692;2023-04-24T08:37:11;8.60;99.90
42833;DHT22;64089;51.478;5.692;2023-04-24T08:39:37;8.50;99.90
42833;DHT22;64089;51.478;5.692;2023-04-24T08:42:04;8.50;99.90
42833;DHT22;64089;51.478;5.692;2023-04-24T08:44:33;8.70;99.90
42833;DHT22;64089;51.478;5.692;2023-04-24T08:47:01;8.80;99.90
42833;DHT22;64089;51.478;5.692;2023-04-24T08:49:28;8.90;99.90
42833;DHT22;64089;51.478;5.692;2023-04-24T08:51:54;8.90;99.90
42833;DHT22;64089;51.478;5.692;2023-04-24T08:54:21;8.90;99.90
42833;DHT22;64089;51.478;5.692;2023-04-24T08:56:48;8.80;99.90
42833;DHT22;64089;51.478;5.692;2023-04-24T08:59:15;8.80;99.90
42833;DHT22;64089;51.478;5.692;2023-04-24T09:01:41;8.70;99.90
42833;DHT22;64089;51.478;5.692;2023-04-24T09:04:09;8.80;99.90
42833;DHT22;64089;51.478;5.692;2023-04-24T09:06:38;8.80;99.90
42833;DHT22;64089;51.478;5.692;2023-04-24T09:09:04;8.80;99.90
42833;DHT22;64089;51.478;5.692;2023-04-24T09:11:31;8.80;99.90
42833;DHT22;64089;51.478;5.692;2023-04-24T09:13:58;8.90;99.90
42833;DHT22;64089;51.478;5.692;2023-04-24T09:16:25;8.90;99.90
42833;DHT22;64089;51.478;5.692;2023-04-24T09:18:51;9.00;99.90
42833;DHT22;64089;51.478;5.692;2023-04-24T09:21:17;9.20;99.90
42833;DHT22;64089;51.478;5.692;2023-04-24T09:23:43;9.10;99.90
42833;DHT22;64089;51.478;5.692;2023-04-24T09:26:09;9.10;99.90
42833;DHT22;64089;51.478;5.692;2023-04-24T09:28:37;9.10;99.90
42833;DHT22;64089;51.478;5.692;2023-04-24T09:31:03;9.00;99.90
42833;DHT22;64089;51.478;5.692;2023-04-24T09:33:29;9.00;99.90
42833;DHT22;64089;51.478;5.692;2023-04-24T09:35:55;9.00;99.90
42833;DHT22;64089;51.478;5.692;2023-04-24T09:38:34;8.90;99.90
42833;DHT22;64089;51.478;5.692;2023-04-24T09:41:06;8.90;99.90
42833;DHT22;64089;51.478;5.692;2023-04-24T09:43:32;9.10;99.90
42833;DHT22;64089;51.478;5.692;2023-04-24T09:45:59;9.20;99.90
42833;DHT22;64089;51.478;5.692;2023-04-24T09:48:37;9.40;99.90
42833;DHT22;64089;51.478;5.692;2023-04-24T09:51:04;9.40;99.90
42833;DHT22;64089;51.478;5.692;2023-04-24T09:53:32;9.60;99.90
42833;DHT22;64089;51.478;5.692;2023-04-24T09:56:10;9.80;99.90
42833;DHT22;64089;51.478;5.692;2023-04-24T09:58:37;9.80;99.90
42833;DHT22;64089;51.478;5.692;2023-04-24T10:01:03;9.30;99.90
42833;DHT22;64089;51.478;5.692;2023-04-24T10:03:30;9.20;99.90
42833;DHT22;64089;51.478;5.692;2023-04-24T10:06:03;9.20;99.90
42833;DHT22;64089;51.478;5.692;2023-04-24T10:08:35;9.20;99.90
42833;DHT22;64089;51.478;5.692;2023-04-24T10:11:01;9.30;99.90
42833;DHT22;64089;51.478;5.692;2023-04-24T10:13:27;9.30;99.90
42833;DHT22;64089;51.478;5.692;2023-04-24T10:15:53;9.40;99.90
42833;DHT22;64089;51.478;5.692;2023-04-24T10:18:20;9.60;99.90
42833;DHT22;64089;51.478;5.692;2023-04-24T10:20:47;9.80;99.90
42833;DHT22;64089;51.478;5.692;2023-04-24T10:23:12;9.80;99.90
42833;DHT22;64089;51.478;5.692;2023-04-24T10:25:38;9.90;99.90
42833;DHT22;64089;51.478;5.692;2023-04-24T10:28:05;10.20;99.90
42833;DHT22;64089;51.478;5.692;2023-04-24T10:30:34;10.10;99.90
42833;DHT22;64089;51.478;5.692;2023-04-24T10:33:04;10.10;99.90
42833;DHT22;64089;51.478;5.692;2023-04-24T10:35:39;10.30;99.90
42833;DHT22;64089;51.478;5.692;2023-04-24T10:38:18;10.30;99.90
42833;DHT22;64089;51.478;5.692;2023-04-24T10:40:49;10.10;99.90
42833;DHT22;64089;51.478;5.692;2023-04-24T10:43:17;10.10;99.90
42833;DHT22;64089;51.478;5.692;2023-04-24T10:46:03;10.20;99.90
42833;DHT22;64089;51.478;5.692;2023-04-24T10:48:29;10.10;99.90
42833;DHT22;64089;51.478;5.692;2023-04-24T10:50:55;9.90;99.90
42833;DHT22;64089;51.478;5.692;2023-04-24T10:53:23;9.80;99.90
42833;DHT22;64089;51.478;5.692;2023-04-24T10:56:06;9.70;99.90
42833;DHT22;64089;51.478;5.692;2023-04-24T11:01:23;9.70;99.90
42833;DHT22;64089;51.478;5.692;2023-04-24T11:03:54;9.80;99.90
42833;DHT22;64089;51.478;5.692;2023-04-24T11:06:28;9.80;99.90
42833;DHT22;64089;51.478;5.692;2023-04-24T11:09:05;10.00;99.90
42833;DHT22;64089;51.478;5.692;2023-04-24T11:11:32;10.20;99.90
42833;DHT22;64089;51.478;5.692;2023-04-24T11:16:43;10.00;99.90
42833;DHT22;64089;51.478;5.692;2023-04-24T11:21:48;10.10;99.90
42833;DHT22;64089;51.478;5.692;2023-04-24T11:27:21;10.30;99.90
42833;DHT22;64089;51.478;5.692;2023-04-24T11:32:19;10.40;99.90
42833;DHT22;64089;51.478;5.692;2023-04-24T11:34:49;10.20;99.90
42833;DHT22;64089;51.478;5.692;2023-04-24T11:37:16;10.20;99.90
42833;DHT22;64089;51.478;5.692;2023-04-24T11:39:42;10.10;99.90
42833;DHT22;64089;51.478;5.692;2023-04-24T11:42:09;9.80;99.90
42833;DHT22;64089;51.478;5.692;2023-04-24T11:44:35;9.50;99.90
42833;DHT22;64089;51.478;5.692;2023-04-24T11:47:04;9.20;99.90
42833;DHT22;64089;51.478;5.692;2023-04-24T11:49:30;9.10;99.90
42833;DHT22;64089;51.478;5.692;2023-04-24T11:51:56;9.00;99.90
42833;DHT22;64089;51.478;5.692;2023-04-24T11:54:21;9.00;99.90
42833;DHT22;64089;51.478;5.692;2023-04-24T11:56:49;9.00;99.90
42833;DHT22;64089;51.478;5.692;2023-04-24T11:59:16;9.10;99.90
42833;DHT22;64089;51.478;5.692;2023-04-24T12:01:48;9.30;99.90
42833;DHT22;64089;51.478;5.692;2023-04-24T12:04:15;9.60;99.90
42833;DHT22;64089;51.478;5.692;2023-04-24T12:07:01;9.90;99.90
42833;DHT22;64089;51.478;5.692;2023-04-24T12:09:26;10.10;99.90
42833;DHT22;64089;51.478;5.692;2023-04-24T12:11:53;10.10;99.90
42833;DHT22;64089;51.478;5.692;2023-04-24T12:14:22;10.00;99.90
42833;DHT22;64089;51.478;5.692;2023-04-24T12:16:48;10.10;99.90
42833;DHT22;64089;51.478;5.692;2023-04-24T12:19:23;10.20;99.90
42833;DHT22;64089;51.478;5.692;2023-04-24T12:22:04;10.20;99.90
42833;DHT22;64089;51.478;5.692;2023-04-24T12:24:30;10.00;99.90
42833;DHT22;64089;51.478;5.692;2023-04-24T12:26:57;10.00;99.90
42833;DHT22;64089;51.478;5.692;2023-04-24T12:29:23;10.00;99.90
42833;DHT22;64089;51.478;5.692;2023-04-24T12:31:51;10.00;99.90
42833;DHT22;64089;51.478;5.692;2023-04-24T12:34:25;10.20;99.90
42833;DHT22;64089;51.478;5.692;2023-04-24T12:36:50;10.20;99.90
42833;DHT22;64089;51.478;5.692;2023-04-24T12:39:18;10.30;99.90
42833;DHT22;64089;51.478;5.692;2023-04-24T12:41:57;10.40;99.90
42833;DHT22;64089;51.478;5.692;2023-04-24T12:44:33;10.50;99.90
42833;DHT22;64089;51.478;5.692;2023-04-24T12:47:00;10.60;99.90
42833;DHT22;64089;51.478;5.692;2023-04-24T12:49:26;10.70;99.90
42833;DHT22;64089;51.478;5.692;2023-04-24T12:51:52;10.70;99.90
42833;DHT22;64089;51.478;5.692;2023-04-24T12:54:18;10.80;99.90
42833;DHT22;64089;51.478;5.692;2023-04-24T12:56:43;10.90;99.90
42833;DHT22;64089;51.478;5.692;2023-04-24T12:59:09;10.90;99.90
42833;DHT22;64089;51.478;5.692;2023-04-24T13:01:35;11.10;99.90
42833;DHT22;64089;51.478;5.692;2023-04-24T13:04:01;11.10;99.90
42833;DHT22;64089;51.478;5.692;2023-04-24T13:06:26;11.10;99.90
42833;DHT22;64089;51.478;5.692;2023-04-24T13:08:52;10.90;99.90
42833;DHT22;64089;51.478;5.692;2023-04-24T13:11:20;11.00;99.90
42833;DHT22;64089;51.478;5.692;2023-04-24T13:13:47;11.00;99.90
42833;DHT22;64089;51.478;5.692;2023-04-24T13:16:12;11.10;99.90
42833;DHT22;64089;51.478;5.692;2023-04-24T13:18:38;11.10;99.90
42833;DHT22;64089;51.478;5.692;2023-04-24T13:21:04;11.00;99.90
42833;DHT22;64089;51.478;5.692;2023-04-24T13:23:29;10.90;99.90
42833;DHT22;64089;51.478;5.692;2023-04-24T13:25:55;10.90;99.90
42833;DHT22;64089;51.478;5.692;2023-04-24T13:28:24;10.80;99.90
42833;DHT22;64089;51.478;5.692;2023-04-24T13:30:51;10.80;99.90
42833;DHT22;64089;51.478;5.692;2023-04-24T13:33:16;10.80;99.90
42833;DHT22;64089;51.478;5.692;2023-04-24T13:35:42;10.60;99.90
42833;DHT22;64089;51.478;5.692;2023-04-24T13:38:08;10.60;99.90
42833;DHT22;64089;51.478;5.692;2023-04-24T13:40:33;10.50;99.90
42833;DHT22;64089;51.478;5.692;2023-04-24T13:42:59;10.40;99.90
42833;DHT22;64089;51.478;5.692;2023-04-24T13:45:26;10.50;99.90
42833;DHT22;64089;51.478;5.692;2023-04-24T13:47:52;10.50;99.90
42833;DHT22;64089;51.478;5.692;2023-04-24T13:50:19;10.20;99.90
42833;DHT22;64089;51.478;5.692;2023-04-24T13:52:45;10.00;99.90
42833;DHT22;64089;51.478;5.692;2023-04-24T13:55:11;9.80;99.90
42833;DHT22;64089;51.478;5.692;2023-04-24T13:57:36;9.70;99.90
42833;DHT22;64089;51.478;5.692;2023-04-24T14:00:03;9.70;99.90
42833;DHT22;64089;51.478;5.692;2023-04-24T14:02:31;10.00;99.90
42833;DHT22;64089;51.478;5.692;2023-04-24T14:04:57;10.20;99.90
42833;DHT22;64089;51.478;5.692;2023-04-24T14:07:22;10.30;99.90
42833;DHT22;64089;51.478;5.692;2023-04-24T14:09:48;10.60;99.90
42833;DHT22;64089;51.478;5.692;2023-04-24T14:12:15;10.80;99.90
42833;DHT22;64089;51.478;5.692;2023-04-24T14:14:46;10.70;99.90
42833;DHT22;64089;51.478;5.692;2023-04-24T14:17:12;11.00;99.90
42833;DHT22;64089;51.478;5.692;2023-04-24T14:19:37;11.00;99.90
42833;DHT22;64089;51.478;5.692;2023-04-24T14:22:03;11.10;99.90
42833;DHT22;64089;51.478;5.692;2023-04-24T14:24:28;11.20;99.90
42833;DHT22;64089;51.478;5.692;2023-04-24T14:26:54;11.30;99.90
42833;DHT22;64089;51.478;5.692;2023-04-24T14:29:19;11.30;99.90
42833;DHT22;64089;51.478;5.692;2023-04-24T14:31:45;11.00;99.90
42833;DHT22;64089;51.478;5.692;2023-04-24T14:34:11;10.80;99.90
42833;DHT22;64089;51.478;5.692;2023-04-24T14:36:37;10.50;99.90
42833;DHT22;64089;51.478;5.692;2023-04-24T14:39:03;10.50;99.90
42833;DHT22;64089;51.478;5.692;2023-04-24T14:41:32;10.30;99.90
42833;DHT22;64089;51.478;5.692;2023-04-24T14:44:01;10.10;99.90
42833;DHT22;64089;51.478;5.692;2023-04-24T14:46:28;10.10;99.90
42833;DHT22;64089;51.478;5.692;2023-04-24T14:48:54;10.20;99.90
42833;DHT22;64089;51.478;5.692;2023-04-24T14:51:20;10.30;99.90
42833;DHT22;64089;51.478;5.692;2023-04-24T14:53:45;10.50;99.90
42833;DHT22;64089;51.478;5.692;2023-04-24T14:56:13;10.60;99.90
42833;DHT22;64089;51.478;5.692;2023-04-24T14:58:39;10.80;99.90
42833;DHT22;64089;51.478;5.692;2023-04-24T15:01:04;10.90;99.90
42833;DHT22;64089;51.478;5.692;2023-04-24T15:03:32;11.20;99.90
42833;DHT22;64089;51.478;5.692;2023-04-24T15:05:58;11.40;99.90
42833;DHT22;64089;51.478;5.692;2023-04-24T15:08:24;11.70;99.90
42833;DHT22;64089;51.478;5.692;2023-04-24T15:10:49;11.40;99.90
42833;DHT22;64089;51.478;5.692;2023-04-24T15:13:16;11.30;99.90
42833;DHT22;64089;51.478;5.692;2023-04-24T15:15:42;11.30;99.90
42833;DHT22;64089;51.478;5.692;2023-04-24T15:18:08;11.50;99.90
42833;DHT22;64089;51.478;5.692;2023-04-24T15:20:36;11.60;99.90
42833;DHT22;64089;51.478;5.692;2023-04-24T15:23:01;11.80;99.90
42833;DHT22;64089;51.478;5.692;2023-04-24T15:25:27;11.90;99.90
42833;DHT22;64089;51.478;5.692;2023-04-24T15:27:53;12.00;99.90
42833;DHT22;64089;51.478;5.692;2023-04-24T15:30:25;12.00;99.90
42833;DHT22;64089;51.478;5.692;2023-04-24T15:32:50;12.10;99.90
42833;DHT22;64089;51.478;5.692;2023-04-24T15:35:16;12.10;99.90
42833;DHT22;64089;51.478;5.692;2023-04-24T15:37:43;12.20;99.90
42833;DHT22;64089;51.478;5.692;2023-04-24T15:40:09;12.40;99.90
42833;DHT22;64089;51.478;5.692;2023-04-24T15:42:36;12.70;99.90
42833;DHT22;64089;51.478;5.692;2023-04-24T15:45:02;12.80;99.90
42833;DHT22;64089;51.478;5.692;2023-04-24T15:47:28;12.60;99.90
42833;DHT22;64089;51.478;5.692;2023-04-24T15:49:55;12.50;99.90